Time;durP1;ratioP1;P1;durP2;ratioP2;P2;SDS_P1;SDS_P2;PMS_P1;PMS_P2;Temp;Humidity;BMP_temperature;BMP_pressure;BME280_temperature;BME280_humidity;BME280_pressure;Samples;Min_cycle;Max_cycle;Signal;HPM_P1;HPM_P2
2023/05/12 00:02:08;;;;;;;11.82;7.05;;;12.10;99.90;;;;;;6241956;23;20085;-73
2023/05/12 00:04:35;;;;;;;11.23;6.40;;;12.20;99.90;;;;;;6214431;23;20146;-73
2023/05/12 00:07:01;;;;;;;12.07;7.47;;;12.10;99.90;;;;;;6189326;23;20016;-74
2023/05/12 00:09:26;;;;;;;13.75;7.88;;;12.10;99.90;;;;;;6214621;23;20060;-73
2023/05/12 00:11:52;;;;;;;13.05;7.40;;;12.10;99.90;;;;;;6241485;23;20052;-73
2023/05/12 00:14:18;;;;;;;16.67;8.30;;;12.10;99.90;;;;;;6241120;23;20017;-74
2023/05/12 00:16:46;;;;;;;13.88;7.80;;;12.10;99.90;;;;;;6241543;23;20027;-73
2023/05/12 00:19:12;;;;;;;13.68;8.00;;;12.10;99.90;;;;;;6240871;23;20490;-73
2023/05/12 00:21:37;;;;;;;14.95;8.70;;;12.10;99.90;;;;;;6241471;23;20059;-73
2023/05/12 00:24:03;;;;;;;16.38;9.32;;;12.10;99.90;;;;;;6241082;23;20027;-75
2023/05/12 00:26:29;;;;;;;14.43;8.32;;;12.10;99.90;;;;;;6241759;23;20096;-74
2023/05/12 00:28:55;;;;;;;15.43;8.68;;;12.10;99.90;;;;;;6214339;23;20063;-74
2023/05/12 00:31:21;;;;;;;16.73;8.85;;;12.20;99.90;;;;;;6214543;23;20455;-73
2023/05/12 00:33:46;;;;;;;18.52;10.30;;;12.10;99.90;;;;;;6214409;23;20047;-73
2023/05/12 00:36:12;;;;;;;15.73;9.80;;;12.20;99.90;;;;;;6213087;23;20059;-73
2023/05/12 00:38:38;;;;;;;19.90;10.15;;;12.20;99.90;;;;;;6240369;23;20026;-73
2023/05/12 00:41:03;;;;;;;18.30;9.55;;;12.20;99.90;;;;;;6240312;23;20028;-73
2023/05/12 00:43:30;;;;;;;17.92;9.93;;;12.10;99.90;;;;;;6213766;23;20016;-73
2023/05/12 00:45:56;;;;;;;20.10;11.00;;;12.10;99.90;;;;;;6213902;23;20023;-73
2023/05/12 00:48:22;;;;;;;21.42;10.43;;;12.10;99.90;;;;;;6240729;23;20024;-74
2023/05/12 00:50:48;;;;;;;22.38;11.10;;;12.10;99.90;;;;;;6241068;23;20325;-72
2023/05/12 00:53:13;;;;;;;25.95;12.20;;;12.20;99.90;;;;;;6213880;23;20020;-73
2023/05/12 00:55:40;;;;;;;20.70;11.27;;;12.10;99.90;;;;;;6241465;23;20174;-74
2023/05/12 00:58:06;;;;;;;24.85;12.13;;;12.10;99.90;;;;;;6241665;23;20024;-71
2023/05/12 01:00:32;;;;;;;22.67;11.52;;;12.10;99.90;;;;;;6241900;23;20016;-71
2023/05/12 01:02:57;;;;;;;25.52;12.05;;;12.10;99.90;;;;;;6215027;23;20784;-71
2023/05/12 01:05:30;;;;;;;24.58;13.15;;;12.10;99.90;;;;;;6241127;23;20094;-71
2023/05/12 01:07:59;;;;;;;23.65;12.75;;;12.10;99.90;;;;;;6241055;23;20020;-71
2023/05/12 01:10:25;;;;;;;25.63;12.70;;;12.10;99.90;;;;;;6213883;23;20031;-71
2023/05/12 01:12:50;;;;;;;25.50;12.20;;;12.10;99.90;;;;;;6214017;23;20020;-71
2023/05/12 01:15:17;;;;;;;29.27;13.88;;;12.10;99.90;;;;;;6213650;23;20024;-70
2023/05/12 01:18:03;;;;;;;25.98;12.45;;;12.20;99.90;;;;;;6188156;23;20024;-71
2023/05/12 01:20:30;;;;;;;29.45;12.93;;;12.20;99.90;;;;;;6240724;23;20070;-71
2023/05/12 01:22:57;;;;;;;27.58;12.40;;;12.20;99.90;;;;;;6240302;23;20012;-71
2023/05/12 01:25:25;;;;;;;29.45;13.73;;;12.20;99.90;;;;;;6241333;23;20054;-71
2023/05/12 01:27:52;;;;;;;29.00;14.15;;;12.20;99.90;;;;;;6213942;23;20020;-71
2023/05/12 01:30:20;;;;;;;34.65;14.48;;;12.20;99.90;;;;;;6213657;23;20021;-71
2023/05/12 01:32:46;;;;;;;30.50;13.98;;;12.20;99.90;;;;;;6241058;23;20023;-71
2023/05/12 01:35:11;;;;;;;30.17;15.18;;;12.20;99.90;;;;;;6240773;23;20024;-71
2023/05/12 01:37:37;;;;;;;38.17;16.30;;;12.20;99.90;;;;;;6214325;23;20027;-71
2023/05/12 01:40:03;;;;;;;32.25;16.80;;;12.30;99.90;;;;;;6241409;23;20419;-72
2023/05/12 01:42:29;;;;;;;34.10;17.40;;;12.30;99.90;;;;;;6241408;23;20022;-72
2023/05/12 01:44:55;;;;;;;35.80;17.75;;;12.30;99.90;;;;;;6240777;23;20032;-71
2023/05/12 01:47:20;;;;;;;36.00;17.00;;;12.30;99.90;;;;;;6214116;23;20431;-72
2023/05/12 01:49:46;;;;;;;36.65;17.15;;;12.20;99.90;;;;;;6240958;23;20016;-72
2023/05/12 01:52:12;;;;;;;36.25;16.63;;;12.20;99.90;;;;;;6240869;23;20293;-71
2023/05/12 01:54:38;;;;;;;36.80;17.20;;;12.30;99.90;;;;;;6213845;23;20016;-72
2023/05/12 01:57:04;;;;;;;35.30;17.83;;;12.20;99.90;;;;;;6240980;23;20410;-72
2023/05/12 01:59:30;;;;;;;37.17;18.40;;;12.20;99.90;;;;;;6240544;23;20518;-72
2023/05/12 02:01:55;;;;;;;41.53;17.25;;;12.20;99.90;;;;;;6240914;23;20036;-72
2023/05/12 02:04:21;;;;;;;40.53;19.92;;;12.20;99.90;;;;;;6213166;23;20455;-72
2023/05/12 02:06:47;;;;;;;43.05;18.08;;;12.30;99.90;;;;;;6240717;23;20024;-72
2023/05/12 02:09:12;;;;;;;36.60;17.58;;;12.20;99.90;;;;;;6240824;23;20016;-71
2023/05/12 02:11:38;;;;;;;39.72;17.67;;;12.20;99.90;;;;;;6240644;23;20533;-72
2023/05/12 02:14:04;;;;;;;39.60;18.63;;;12.30;99.90;;;;;;6188758;23;20401;-71
2023/05/12 02:16:29;;;;;;;39.22;18.58;;;12.30;99.90;;;;;;6213591;23;20107;-71
2023/05/12 02:18:55;;;;;;;39.72;17.70;;;12.30;99.90;;;;;;6213424;23;20448;-71
2023/05/12 02:21:21;;;;;;;36.95;18.48;;;12.30;99.90;;;;;;6213509;23;20029;-71
2023/05/12 02:23:47;;;;;;;39.47;16.77;;;12.30;99.90;;;;;;6213666;23;20028;-71
2023/05/12 02:26:12;;;;;;;37.65;18.23;;;12.30;99.90;;;;;;6240821;23;20047;-71
2023/05/12 02:28:38;;;;;;;36.80;18.85;;;12.30;99.90;;;;;;6215240;23;20016;-72
2023/05/12 02:31:04;;;;;;;41.30;18.05;;;12.30;99.90;;;;;;6242812;23;20016;-71
2023/05/12 02:33:29;;;;;;;36.00;19.13;;;12.30;99.90;;;;;;6242612;23;20027;-71
2023/05/12 02:35:55;;;;;;;36.50;17.50;;;12.30;99.90;;;;;;6242583;23;20456;-72
2023/05/12 02:38:21;;;;;;;37.78;18.65;;;12.30;99.90;;;;;;6215511;23;20448;-72
2023/05/12 02:40:47;;;;;;;43.03;18.83;;;12.30;99.90;;;;;;6215497;23;20031;-72
2023/05/12 02:43:13;;;;;;;42.03;19.10;;;12.30;99.90;;;;;;6242742;23;20079;-72
2023/05/12 02:45:39;;;;;;;37.85;18.05;;;12.40;99.90;;;;;;6215398;23;20023;-72
2023/05/12 02:48:06;;;;;;;40.50;18.83;;;12.40;99.90;;;;;;6215545;23;20595;-72
2023/05/12 02:50:31;;;;;;;44.60;20.30;;;12.30;99.90;;;;;;6242937;23;20187;-71
2023/05/12 02:52:57;;;;;;;42.33;19.23;;;12.40;99.90;;;;;;6242743;23;20016;-72
2023/05/12 02:55:23;;;;;;;42.42;21.02;;;12.40;99.90;;;;;;6242790;23;20051;-72
2023/05/12 02:57:49;;;;;;;44.72;21.35;;;12.40;99.90;;;;;;6242517;23;20020;-72
2023/05/12 03:00:15;;;;;;;46.88;19.70;;;12.40;99.90;;;;;;6242399;23;20028;-72
2023/05/12 03:02:40;;;;;;;45.03;19.70;;;12.40;99.90;;;;;;6214921;23;20024;-72
2023/05/12 03:05:08;;;;;;;44.10;19.40;;;12.40;99.90;;;;;;6241918;23;20027;-72
2023/05/12 03:07:34;;;;;;;44.50;20.77;;;12.40;99.90;;;;;;6215120;23;20119;-72
2023/05/12 03:10:00;;;;;;;42.88;21.70;;;12.40;99.90;;;;;;6215491;23;20016;-72
2023/05/12 03:12:28;;;;;;;48.15;21.58;;;12.40;99.90;;;;;;6215277;23;20526;-72
2023/05/12 03:14:54;;;;;;;47.30;21.58;;;12.40;99.90;;;;;;6241829;23;20444;-72
2023/05/12 03:17:20;;;;;;;45.72;21.63;;;12.40;99.90;;;;;;6242255;23;20016;-73
2023/05/12 03:19:46;;;;;;;47.00;21.55;;;12.40;99.90;;;;;;6241963;23;20452;-72
2023/05/12 03:22:12;;;;;;;47.20;20.55;;;12.40;99.90;;;;;;6241881;23;20020;-72
2023/05/12 03:24:38;;;;;;;43.83;20.65;;;12.40;99.90;;;;;;6242198;23;20349;-72
2023/05/12 03:27:04;;;;;;;44.10;20.52;;;12.40;99.90;;;;;;6241959;23;20024;-73
2023/05/12 03:29:30;;;;;;;46.95;23.58;;;12.40;99.90;;;;;;6214766;23;20688;-72
2023/05/12 03:31:56;;;;;;;50.30;22.50;;;12.50;99.90;;;;;;6214791;23;20607;-72
2023/05/12 03:34:22;;;;;;;43.53;20.58;;;12.50;99.90;;;;;;6189585;23;20028;-72
2023/05/12 03:36:48;;;;;;;46.88;21.30;;;12.40;99.90;;;;;;6242021;23;20083;-72
2023/05/12 03:39:13;;;;;;;46.20;21.67;;;12.50;99.90;;;;;;6214246;23;20030;-72
2023/05/12 03:41:39;;;;;;;48.95;22.85;;;12.50;99.90;;;;;;6214832;23;20028;-72
2023/05/12 03:44:07;;;;;;;49.95;22.00;;;12.50;99.90;;;;;;6232495;23;20025;-73
2023/05/12 03:46:33;;;;;;;50.15;23.80;;;12.50;99.90;;;;;;6210998;23;20020;-73
2023/05/12 03:48:59;;;;;;;55.78;23.45;;;12.50;99.90;;;;;;6211552;23;20013;-72
2023/05/12 03:51:26;;;;;;;56.45;22.67;;;12.50;99.90;;;;;;6211452;23;20020;-72
2023/05/12 03:53:52;;;;;;;56.38;22.52;;;12.50;99.90;;;;;;6184039;23;20115;-73
2023/05/12 03:56:18;;;;;;;53.33;23.80;;;12.50;99.90;;;;;;6184453;23;20052;-72
2023/05/12 03:58:46;;;;;;;55.35;24.88;;;12.50;99.90;;;;;;6211466;23;20020;-72
2023/05/12 04:01:12;;;;;;;48.40;23.38;;;12.50;99.90;;;;;;6183691;23;20021;-72
2023/05/12 04:03:39;;;;;;;57.20;23.73;;;12.50;99.90;;;;;;6183844;23;20015;-72
2023/05/12 04:06:06;;;;;;;53.03;23.67;;;12.50;99.90;;;;;;6184385;23;20028;-72
2023/05/12 04:08:32;;;;;;;46.08;21.55;;;12.50;99.90;;;;;;6211355;23;20522;-73
2023/05/12 04:10:59;;;;;;;54.35;24.20;;;12.50;99.90;;;;;;6184360;23;20013;-71
2023/05/12 04:13:26;;;;;;;53.30;22.48;;;12.60;99.90;;;;;;6184710;23;20027;-72
2023/05/12 04:15:56;;;;;;;50.60;22.92;;;12.60;99.90;;;;;;6210521;23;20032;-72
2023/05/12 04:18:23;;;;;;;46.75;23.05;;;12.50;99.90;;;;;;6184431;23;20031;-72
2023/05/12 04:20:48;;;;;;;47.08;22.95;;;12.60;99.90;;;;;;6211574;23;20013;-72
2023/05/12 04:23:14;;;;;;;54.33;24.17;;;12.60;99.90;;;;;;6184640;23;20104;-72
2023/05/12 04:25:41;;;;;;;52.25;22.42;;;12.60;99.90;;;;;;6211320;23;20020;-75
2023/05/12 04:28:08;;;;;;;54.08;23.15;;;12.60;99.90;;;;;;6184720;23;20083;-72
2023/05/12 04:30:33;;;;;;;48.08;23.17;;;12.60;99.90;;;;;;6210936;23;20009;-72
2023/05/12 04:33:00;;;;;;;51.03;24.08;;;12.60;99.90;;;;;;6211436;23;20376;-72
2023/05/12 04:35:26;;;;;;;46.97;23.02;;;12.60;99.90;;;;;;6184283;23;20095;-72
2023/05/12 04:37:52;;;;;;;47.33;21.83;;;12.60;99.90;;;;;;6210724;23;20642;-72
2023/05/12 04:40:18;;;;;;;41.42;21.77;;;12.60;99.90;;;;;;6183912;23;20020;-71
2023/05/12 04:42:44;;;;;;;44.08;20.60;;;12.60;99.90;;;;;;6211035;23;20013;-71
2023/05/12 04:45:10;;;;;;;41.75;21.42;;;12.60;99.90;;;;;;6210447;23;20032;-71
2023/05/12 04:47:35;;;;;;;42.47;21.00;;;12.60;99.90;;;;;;6210981;23;20020;-71
2023/05/12 04:50:02;;;;;;;47.38;21.55;;;12.70;99.90;;;;;;6184123;23;20546;-72
2023/05/12 04:52:28;;;;;;;40.58;21.08;;;12.70;99.90;;;;;;6183838;23;20016;-71
2023/05/12 04:54:53;;;;;;;46.75;21.25;;;12.60;99.90;;;;;;6210561;23;20032;-71
2023/05/12 04:57:19;;;;;;;44.03;21.63;;;12.70;99.90;;;;;;6184018;23;20025;-72
2023/05/12 04:59:45;;;;;;;45.53;20.85;;;12.70;99.90;;;;;;6183865;23;20024;-72
2023/05/12 05:02:11;;;;;;;44.42;20.60;;;12.70;99.90;;;;;;6210992;23;20049;-72
2023/05/12 05:04:37;;;;;;;46.15;21.90;;;12.70;99.90;;;;;;6210924;23;20031;-72
2023/05/12 05:07:03;;;;;;;46.22;21.45;;;12.70;99.90;;;;;;6211085;23;20400;-72
2023/05/12 05:09:29;;;;;;;43.83;20.80;;;12.70;99.90;;;;;;6184753;23;20107;-72
2023/05/12 05:11:55;;;;;;;46.25;20.02;;;12.70;99.90;;;;;;6186936;23;20083;-71
2023/05/12 05:14:21;;;;;;;43.83;20.48;;;12.70;99.90;;;;;;6213485;23;20016;-71
2023/05/12 05:16:47;;;;;;;39.28;19.45;;;12.80;99.90;;;;;;6213349;23;20025;-71
2023/05/12 05:19:13;;;;;;;37.40;19.50;;;12.80;99.90;;;;;;6187308;23;20028;-71
2023/05/12 05:21:39;;;;;;;44.55;21.50;;;12.80;99.90;;;;;;6214016;23;20020;-71
2023/05/12 05:24:05;;;;;;;43.83;20.65;;;12.80;99.90;;;;;;6186715;23;20024;-71
2023/05/12 05:26:31;;;;;;;40.35;20.00;;;12.80;99.90;;;;;;6212248;23;20024;-72
2023/05/12 05:28:57;;;;;;;41.80;19.85;;;12.80;99.90;;;;;;6214047;23;20021;-72
2023/05/12 05:31:22;;;;;;;43.83;19.65;;;12.80;99.90;;;;;;6187347;23;20085;-72
2023/05/12 05:33:48;;;;;;;39.13;19.80;;;12.90;99.90;;;;;;6214480;23;20520;-73
2023/05/12 05:36:14;;;;;;;40.85;20.30;;;12.80;99.90;;;;;;6213970;23;20091;-72
2023/05/12 05:38:39;;;;;;;44.97;20.17;;;12.70;99.90;;;;;;6215103;23;20017;-72
2023/05/12 05:41:05;;;;;;;40.83;17.98;;;12.80;99.90;;;;;;6214261;23;20442;-72
2023/05/12 05:43:31;;;;;;;38.97;18.67;;;12.80;99.90;;;;;;6214177;23;20013;-71
2023/05/12 05:45:57;;;;;;;41.17;20.80;;;12.80;99.90;;;;;;6214781;23;20016;-72
2023/05/12 05:48:24;;;;;;;37.55;19.17;;;12.80;99.90;;;;;;6187366;23;20031;-73
2023/05/12 05:50:50;;;;;;;43.50;20.27;;;12.80;99.90;;;;;;6214370;23;20020;-72
2023/05/12 05:53:17;;;;;;;47.33;21.52;;;12.80;99.90;;;;;;6187379;23;20468;-72
2023/05/12 05:55:43;;;;;;;47.47;22.00;;;12.80;99.90;;;;;;6187518;23;20020;-72
2023/05/12 05:58:09;;;;;;;43.72;20.38;;;12.80;99.90;;;;;;6214671;23;20023;-72
2023/05/12 06:00:35;;;;;;;46.15;20.75;;;12.80;99.90;;;;;;6187462;23;20092;-72
2023/05/12 06:03:00;;;;;;;46.05;20.58;;;12.90;99.90;;;;;;6217754;23;20429;-73
2023/05/12 06:05:26;;;;;;;46.47;21.30;;;12.90;99.90;;;;;;6191631;23;20528;-72
2023/05/12 06:07:52;;;;;;;42.72;19.63;;;12.90;99.90;;;;;;6191218;23;20025;-72
2023/05/12 06:10:18;;;;;;;43.67;21.63;;;12.90;99.90;;;;;;6191064;23;20018;-73
2023/05/12 06:12:43;;;;;;;43.45;21.13;;;12.90;99.90;;;;;;6166694;23;20115;-73
2023/05/12 06:15:10;;;;;;;44.08;21.67;;;12.90;99.90;;;;;;6192306;23;20025;-74
2023/05/12 06:17:35;;;;;;;50.13;21.23;;;13.00;99.90;;;;;;6219112;23;20333;-75
2023/05/12 06:20:03;;;;;;;46.42;20.65;;;13.00;99.90;;;;;;6219319;23;20013;-75
2023/05/12 06:22:29;;;;;;;45.63;21.40;;;13.00;99.90;;;;;;6191493;23;20025;-69
2023/05/12 06:24:55;;;;;;;49.90;21.67;;;13.00;99.90;;;;;;6189465;23;20039;-69
2023/05/12 06:27:21;;;;;;;45.92;22.38;;;13.00;99.90;;;;;;6215624;23;20020;-69
2023/05/12 06:29:46;;;;;;;45.22;20.92;;;13.10;99.90;;;;;;6213799;23;20421;-70
2023/05/12 06:32:12;;;;;;;48.22;20.88;;;13.10;99.90;;;;;;6212301;23;20032;-69
2023/05/12 06:34:37;;;;;;;46.97;22.60;;;13.10;99.90;;;;;;6213571;23;20012;-69
2023/05/12 06:37:03;;;;;;;42.97;20.48;;;13.20;99.90;;;;;;6213311;23;20712;-69
2023/05/12 06:39:29;;;;;;;41.10;20.60;;;13.20;99.90;;;;;;6213631;23;20017;-69
2023/05/12 06:41:55;;;;;;;47.88;20.05;;;13.20;99.90;;;;;;6211756;23;20031;-69
2023/05/12 06:44:20;;;;;;;46.15;21.42;;;13.20;99.90;;;;;;6213307;23;20330;-69
2023/05/12 06:46:46;;;;;;;46.53;21.92;;;13.30;99.90;;;;;;6213601;23;20451;-69
2023/05/12 06:49:12;;;;;;;40.05;20.10;;;13.30;99.90;;;;;;6213048;23;20083;-69
2023/05/12 06:51:37;;;;;;;42.58;21.98;;;13.30;99.90;;;;;;6212910;23;20332;-69
2023/05/12 06:54:03;;;;;;;40.50;21.73;;;13.30;99.90;;;;;;6184923;23;20621;-69
2023/05/12 06:56:30;;;;;;;46.35;21.15;;;13.30;99.90;;;;;;6185849;23;20120;-69
2023/05/12 06:59:01;;;;;;;40.70;21.17;;;13.30;99.90;;;;;;6213345;23;20047;-70
2023/05/12 07:01:27;;;;;;;42.58;19.88;;;13.40;99.90;;;;;;6212966;23;20031;-70
2023/05/12 07:03:53;;;;;;;40.97;20.95;;;13.40;99.90;;;;;;6212493;23;20016;-70
2023/05/12 07:06:19;;;;;;;37.55;19.63;;;13.40;99.90;;;;;;6213272;23;20020;-70
2023/05/12 07:08:45;;;;;;;46.40;21.08;;;13.40;99.90;;;;;;6186232;23;20365;-70
2023/05/12 07:11:11;;;;;;;40.80;20.20;;;13.50;99.90;;;;;;6213499;23;20013;-70
2023/05/12 07:13:37;;;;;;;41.63;21.45;;;13.50;99.90;;;;;;6211835;23;20051;-70
2023/05/12 07:16:03;;;;;;;39.70;20.27;;;13.50;99.90;;;;;;6184480;23;20020;-70
2023/05/12 07:18:29;;;;;;;42.70;22.02;;;13.60;99.90;;;;;;6211096;23;20021;-71
2023/05/12 07:20:55;;;;;;;43.42;21.42;;;13.60;99.90;;;;;;6183624;23;20031;-71
2023/05/12 07:23:21;;;;;;;46.67;22.40;;;13.70;99.90;;;;;;6183692;23;20468;-69
2023/05/12 07:25:47;;;;;;;44.10;21.75;;;13.80;99.90;;;;;;6184170;23;20353;-72
2023/05/12 07:28:12;;;;;;;44.67;22.27;;;13.80;99.90;;;;;;6184344;23;20028;-72
2023/05/12 07:30:38;;;;;;;43.33;22.35;;;13.80;99.90;;;;;;6211727;23;20016;-72
2023/05/12 07:33:05;;;;;;;44.92;22.15;;;13.80;99.90;;;;;;6183687;23;20071;-71
2023/05/12 07:35:31;;;;;;;41.35;21.45;;;13.80;99.90;;;;;;6183938;23;20504;-72
2023/05/12 07:37:56;;;;;;;42.88;21.30;;;13.80;99.90;;;;;;6183784;23;20527;-70
2023/05/12 07:40:22;;;;;;;44.80;21.88;;;13.90;99.90;;;;;;6184202;23;20557;-70
2023/05/12 07:42:48;;;;;;;41.63;21.83;;;13.90;99.90;;;;;;6211860;23;20023;-71
2023/05/12 07:45:21;;;;;;;42.58;20.92;;;13.90;99.90;;;;;;6228786;23;20024;-67
2023/05/12 07:47:50;;;;;;;44.33;21.85;;;13.90;99.90;;;;;;6240304;23;20043;-67
2023/05/12 07:50:19;;;;;;;41.83;21.58;;;13.90;99.90;;;;;;6241122;23;20444;-67
2023/05/12 07:52:49;;;;;;;40.95;19.55;;;13.90;99.90;;;;;;6240170;23;20020;-67
2023/05/12 07:55:16;;;;;;;47.05;22.40;;;13.90;99.90;;;;;;6240765;23;20032;-67
2023/05/12 07:57:42;;;;;;;41.70;20.60;;;13.90;99.90;;;;;;6241108;23;20602;-67
2023/05/12 08:00:09;;;;;;;41.58;21.48;;;13.90;99.90;;;;;;6241048;23;20051;-66
2023/05/12 08:02:39;;;;;;;41.95;21.10;;;14.00;99.90;;;;;;6241095;23;20020;-67
2023/05/12 08:05:08;;;;;;;43.97;22.05;;;14.00;99.90;;;;;;6240706;23;20081;-67
2023/05/12 08:07:34;;;;;;;42.83;20.60;;;14.00;99.90;;;;;;6241544;23;20016;-67
2023/05/12 08:10:01;;;;;;;46.08;21.58;;;14.00;99.90;;;;;;6239179;23;20364;-67
2023/05/12 08:12:27;;;;;;;42.28;21.13;;;14.00;99.90;;;;;;6240716;23;20436;-67
2023/05/12 08:14:53;;;;;;;44.17;22.35;;;14.00;99.90;;;;;;6240781;23;20262;-66
2023/05/12 08:17:20;;;;;;;37.10;18.17;;;14.10;99.90;;;;;;6241103;23;20055;-69
2023/05/12 08:19:45;;;;;;;42.58;21.02;;;14.20;99.90;;;;;;6240277;23;20513;-67
2023/05/12 08:22:11;;;;;;;47.38;22.08;;;14.30;99.90;;;;;;6213526;23;20098;-67
2023/05/12 08:24:37;;;;;;;42.55;21.77;;;14.20;99.90;;;;;;6241583;23;20344;-67
2023/05/12 08:27:02;;;;;;;38.25;20.65;;;14.30;99.90;;;;;;6239093;23;20113;-67
2023/05/12 08:29:28;;;;;;;40.22;21.02;;;14.30;99.90;;;;;;6240261;23;20015;-67
2023/05/12 08:31:54;;;;;;;40.67;21.20;;;14.30;99.90;;;;;;6240963;23;20047;-67
2023/05/12 08:34:20;;;;;;;40.63;21.83;;;14.40;99.90;;;;;;6241039;23;20043;-67
2023/05/12 08:36:46;;;;;;;40.85;21.70;;;14.40;99.90;;;;;;6241279;23;20020;-67
2023/05/12 08:39:12;;;;;;;38.28;20.35;;;14.40;99.90;;;;;;6240456;23;20023;-67
2023/05/12 08:42:02;;;;;;;36.88;20.17;;;14.50;99.90;;;;;;6240893;23;20332;-66
2023/05/12 08:44:28;;;;;;;37.95;19.73;;;14.60;99.90;;;;;;6167557;23;20416;-66
2023/05/12 08:46:57;;;;;;;40.15;20.77;;;14.60;99.90;;;;;;6241334;23;20360;-66
2023/05/12 08:49:25;;;;;;;37.50;20.73;;;14.70;99.90;;;;;;6241057;23;20019;-66
2023/05/12 08:51:53;;;;;;;34.70;19.58;;;14.80;99.90;;;;;;6239540;23;20024;-66
2023/05/12 08:54:21;;;;;;;38.55;20.27;;;14.80;99.90;;;;;;6240762;23;20142;-70
2023/05/12 08:56:48;;;;;;;37.55;20.83;;;14.90;99.90;;;;;;6240530;23;20448;-70
2023/05/12 08:59:14;;;;;;;35.08;19.02;;;14.90;99.90;;;;;;6240405;23;20026;-70
2023/05/12 09:01:41;;;;;;;34.38;19.27;;;15.00;99.90;;;;;;6213752;23;20023;-70
2023/05/12 09:04:07;;;;;;;36.50;19.15;;;15.10;99.90;;;;;;6240092;23;20031;-70
2023/05/12 09:06:33;;;;;;;34.65;18.33;;;15.10;99.90;;;;;;6240711;23;20020;-71
2023/05/12 09:08:59;;;;;;;29.83;18.02;;;15.10;99.90;;;;;;6241179;23;20321;-70
2023/05/12 09:11:25;;;;;;;31.15;18.08;;;15.20;99.90;;;;;;6241091;23;20054;-70
2023/05/12 09:14:05;;;;;;;32.38;17.90;;;15.30;99.90;;;;;;6240958;23;20448;-70
2023/05/12 09:16:43;;;;;;;32.08;18.38;;;15.30;99.90;;;;;;6240167;23;20016;-70
2023/05/12 09:19:08;;;;;;;31.05;18.27;;;15.40;99.90;;;;;;6213173;23;20654;-70
2023/05/12 09:21:34;;;;;;;29.58;18.48;;;15.40;99.90;;;;;;6240993;23;20024;-70
2023/05/12 09:24:05;;;;;;;28.00;16.90;;;15.50;99.90;;;;;;6213038;23;20027;-70
2023/05/12 09:26:43;;;;;;;31.80;18.25;;;15.60;99.90;;;;;;6240505;23;20503;-70
2023/05/12 09:29:10;;;;;;;30.33;16.92;;;15.50;99.90;;;;;;6239895;23;20012;-70
2023/05/12 09:31:36;;;;;;;30.45;18.17;;;15.60;99.90;;;;;;6239378;23;20140;-70
2023/05/12 09:34:07;;;;;;;29.70;17.88;;;15.60;99.90;;;;;;6239593;23;20095;-70
2023/05/12 09:36:33;;;;;;;32.55;18.00;;;15.60;99.90;;;;;;6239336;23;20039;-70
2023/05/12 09:39:00;;;;;;;32.97;18.38;;;15.70;99.90;;;;;;6239688;23;20622;-70
2023/05/12 09:41:26;;;;;;;30.15;18.45;;;15.80;99.90;;;;;;6237267;23;20016;-71
2023/05/12 09:43:52;;;;;;;30.40;16.73;;;15.80;99.90;;;;;;6210031;23;20355;-71
2023/05/12 09:46:18;;;;;;;27.10;15.85;;;15.90;99.90;;;;;;6209648;23;20043;-72
2023/05/12 09:48:47;;;;;;;25.17;16.48;;;15.90;99.90;;;;;;6209092;23;20016;-73
2023/05/12 09:51:19;;;;;;;23.48;15.13;;;16.00;99.90;;;;;;6208603;23;20032;-72
2023/05/12 09:53:45;;;;;;;26.80;16.40;;;16.10;99.90;;;;;;6209131;23;20543;-72
2023/05/12 09:56:12;;;;;;;26.00;16.90;;;16.20;99.90;;;;;;6208961;23;20063;-69
2023/05/12 09:58:46;;;;;;;23.95;15.82;;;16.30;99.90;;;;;;6209471;23;20017;-71
2023/05/12 10:01:14;;;;;;;23.30;15.85;;;16.40;99.90;;;;;;6209338;23;20083;-71
2023/05/12 10:03:41;;;;;;;22.48;14.63;;;16.40;99.90;;;;;;6209278;23;20028;-71
2023/05/12 10:06:11;;;;;;;22.95;15.25;;;16.50;99.90;;;;;;6182630;23;20083;-71
2023/05/12 10:08:46;;;;;;;19.88;12.65;;;16.60;99.90;;;;;;6182841;23;20095;-71
2023/05/12 10:11:12;;;;;;;19.55;12.10;;;16.60;99.90;;;;;;6209699;23;20940;-71
2023/05/12 10:13:38;;;;;;;19.42;12.70;;;16.80;99.90;;;;;;6182604;23;20024;-71
2023/05/12 10:16:05;;;;;;;17.70;12.35;;;16.90;99.90;;;;;;6208953;23;20025;-71
2023/05/12 10:18:33;;;;;;;14.77;11.05;;;17.00;99.90;;;;;;6207166;23;20083;-71
2023/05/12 10:20:59;;;;;;;18.48;11.80;;;17.10;99.90;;;;;;6182374;23;20603;-71
2023/05/12 10:23:26;;;;;;;17.23;11.63;;;17.10;99.90;;;;;;6209271;23;20048;-71
2023/05/12 10:26:00;;;;;;;17.80;12.07;;;17.20;99.90;;;;;;6182670;23;20516;-71
2023/05/12 10:28:28;;;;;;;14.93;10.40;;;17.20;99.90;;;;;;6209835;23;20071;-71
2023/05/12 10:30:58;;;;;;;15.07;9.52;;;17.40;99.90;;;;;;6210096;23;20144;-71
2023/05/12 10:33:25;;;;;;;14.93;11.02;;;17.60;99.90;;;;;;6208459;23;20631;-72
2023/05/12 10:35:51;;;;;;;13.25;9.25;;;17.60;99.90;;;;;;6208284;23;20104;-71
2023/05/12 10:38:20;;;;;;;12.15;9.63;;;17.80;99.90;;;;;;6183020;23;20096;-71
2023/05/12 10:40:53;;;;;;;10.27;8.48;;;17.70;99.90;;;;;;6209462;23;20025;-71
2023/05/12 10:43:27;;;;;;;12.23;9.52;;;17.80;99.90;;;;;;6182460;23;20025;-72
2023/05/12 10:46:11;;;;;;;10.90;8.70;;;17.80;99.90;;;;;;6234978;23;20024;-72
2023/05/12 10:48:53;;;;;;;11.15;7.72;;;17.80;99.90;;;;;;6238966;23;20432;-73
2023/05/12 10:51:31;;;;;;;8.40;7.38;;;17.90;99.90;;;;;;6214605;23;20074;-73
2023/05/12 10:54:00;;;;;;;10.55;7.85;;;18.00;99.90;;;;;;6239892;23;20024;-73
2023/05/12 10:56:28;;;;;;;11.75;7.40;;;18.10;99.90;;;;;;6241133;23;20020;-73
2023/05/12 10:59:22;;;;;;;9.57;7.45;;;18.20;99.90;;;;;;6214809;23;20028;-73
2023/05/12 11:02:17;;;;;;;8.93;7.22;;;18.20;99.90;;;;;;6214711;23;20352;-69
2023/05/12 11:04:57;;;;;;;11.15;8.00;;;18.20;99.90;;;;;;6214664;23;20019;-73
2023/05/12 11:07:29;;;;;;;9.82;7.75;;;18.20;99.90;;;;;;6240072;23;20082;-73
2023/05/12 11:09:58;;;;;;;13.90;8.88;;;18.40;99.90;;;;;;6241339;23;20016;-73
2023/05/12 11:12:28;;;;;;;11.35;9.32;;;18.50;99.90;;;;;;6241670;23;20016;-73
2023/05/12 11:14:54;;;;;;;12.27;8.50;;;18.50;99.90;;;;;;6241631;23;20109;-73
2023/05/12 11:17:20;;;;;;;11.23;8.73;;;18.60;99.90;;;;;;6242326;23;20020;-73
2023/05/12 11:19:48;;;;;;;12.88;8.60;;;18.60;99.90;;;;;;6214525;23;20020;-73
2023/05/12 11:22:17;;;;;;;12.95;9.25;;;18.60;99.90;;;;;;6214945;23;20020;-73
2023/05/12 11:24:42;;;;;;;13.48;10.23;;;18.80;99.90;;;;;;6215102;23;20042;-73
2023/05/12 11:27:13;;;;;;;11.95;9.73;;;18.90;99.90;;;;;;6242357;23;20398;-73
2023/05/12 11:29:40;;;;;;;14.50;11.73;;;18.90;99.90;;;;;;6241498;23;20022;-68
2023/05/12 11:32:08;;;;;;;14.95;11.88;;;18.90;99.90;;;;;;6241678;23;20071;-68
2023/05/12 11:34:33;;;;;;;19.83;13.25;;;19.00;99.90;;;;;;6241924;23;20078;-68
2023/05/12 11:36:59;;;;;;;17.33;12.82;;;19.00;99.90;;;;;;6242419;23;20111;-68
2023/05/12 11:39:27;;;;;;;16.25;11.85;;;19.00;99.90;;;;;;6241864;23;20016;-67
2023/05/12 11:41:53;;;;;;;15.82;12.45;;;19.20;99.90;;;;;;6242034;23;20024;-68
2023/05/12 11:44:21;;;;;;;17.77;12.23;;;19.30;99.90;;;;;;6241552;23;20020;-74
2023/05/12 11:47:05;;;;;;;12.90;9.73;;;19.30;99.90;;;;;;6241598;23;20454;-74
2023/05/12 11:49:31;;;;;;;14.20;11.05;;;19.40;99.90;;;;;;6239775;23;20060;-74
2023/05/12 11:52:01;;;;;;;13.10;9.90;;;19.50;99.90;;;;;;6214493;23;20031;-74
2023/05/12 11:54:28;;;;;;;14.63;12.13;;;19.50;99.90;;;;;;6241356;23;20095;-74
2023/05/12 11:56:55;;;;;;;15.55;12.60;;;19.60;99.90;;;;;;6241527;23;20064;-75
2023/05/12 11:59:32;;;;;;;14.02;11.15;;;19.60;99.90;;;;;;6214187;23;20020;-75
2023/05/12 12:01:59;;;;;;;13.30;10.75;;;19.70;99.90;;;;;;6214385;23;20031;-74
2023/05/12 12:04:41;;;;;;;13.00;10.70;;;19.80;99.90;;;;;;6241897;23;20056;-74
2023/05/12 12:07:08;;;;;;;16.05;10.93;;;19.80;99.90;;;;;;6214347;23;20330;-75
2023/05/12 13:17:18;;;;;;;5.57;3.90;;;20.70;99.90;;;;;;6288243;22;20026;-69
2023/05/12 13:19:44;;;;;;;4.90;3.60;;;20.90;99.90;;;;;;6301723;22;20019;-75
2023/05/12 13:22:10;;;;;;;5.32;3.95;;;21.00;99.90;;;;;;6274697;22;20031;-74
2023/05/12 13:24:36;;;;;;;5.13;4.40;;;21.00;99.90;;;;;;6274616;22;20027;-75
2023/05/12 13:27:06;;;;;;;4.75;4.13;;;21.00;99.90;;;;;;6274428;22;20034;-74
2023/05/12 13:29:32;;;;;;;6.43;4.90;;;21.00;99.90;;;;;;6302431;22;20030;-75
2023/05/12 13:31:58;;;;;;;6.72;4.10;;;20.80;99.90;;;;;;6274482;22;20023;-74
2023/05/12 13:34:24;;;;;;;5.63;4.00;;;20.70;99.90;;;;;;6302202;22;20023;-74
2023/05/12 13:36:50;;;;;;;5.50;3.75;;;20.70;99.90;;;;;;6302621;22;20019;-74